Time;durP1;ratioP1;P1;durP2;ratioP2;P2;SDS_P1;SDS_P2;PMS_P1;PMS_P2;Temp;Humidity;BMP_temperature;BMP_pressure;BME280_temperature;BME280_humidity;BME280_pressure;Samples;Min_cycle;Max_cycle;Signal;HPM_P1;HPM_P2
2022/12/27 16:37:36;;;;;;;16.63;5.78;;;3.50;46.80;;;;;;6259290;22;1349564;-88
2022/12/27 16:40:57;;;;;;;14.43;5.28;;;3.00;99.90;;;;;;6255575;23;20032;-88
2022/12/27 16:44:02;;;;;;;13.70;6.25;;;2.80;99.90;;;;;;6234495;23;20123;-88
2022/12/27 16:46:55;;;;;;;10.95;6.00;;;2.50;99.90;;;;;;6257174;22;20019;-87
2022/12/27 16:49:59;;;;;;;18.33;6.88;;;2.40;99.90;;;;;;6255367;23;20031;-89
2022/12/27 16:53:14;;;;;;;13.02;5.65;;;2.20;99.90;;;;;;6256398;23;20117;-90
2022/12/27 16:56:07;;;;;;;35.42;19.17;;;2.20;1.00;;;;;;6258480;22;20028;-88
2022/12/27 16:58:56;;;;;;;17.05;8.73;;;2.10;99.90;;;;;;6255149;23;20043;-88
2022/12/27 17:01:43;;;;;;;18.50;8.32;;;2.00;99.90;;;;;;6255263;23;20039;-88
2022/12/27 17:04:58;;;;;;;21.42;9.23;;;1.90;1.00;;;;;;6255987;23;20069;-89
2022/12/27 17:07:54;;;;;;;18.77;8.10;;;1.90;99.90;;;;;;6256303;23;20028;-88
2022/12/27 17:10:51;;;;;;;34.88;16.85;;;2.00;1.00;;;;;;6254454;23;20016;-87
2022/12/27 17:13:46;;;;;;;25.63;13.13;;;2.00;99.90;;;;;;6256966;23;20074;-86
2022/12/27 17:16:50;;;;;;;16.10;10.48;;;1.90;99.90;;;;;;6256567;22;20028;-86
2022/12/27 17:19:46;;;;;;;20.45;11.63;;;1.80;99.90;;;;;;6256344;23;20027;-86
2022/12/27 17:22:38;;;;;;;24.92;12.38;;;1.70;1.00;;;;;;6255281;23;20023;-87
2022/12/27 17:25:40;;;;;;;24.13;10.97;;;1.60;99.90;;;;;;6252139;23;20538;-85
2022/12/27 17:28:33;;;;;;;25.35;13.98;;;1.40;1.00;;;;;;6255957;22;20382;-86
2022/12/27 17:31:39;;;;;;;29.60;15.60;;;1.30;1.00;;;;;;6253685;23;20358;-87
2022/12/27 17:35:02;;;;;;;32.85;18.63;;;1.20;99.90;;;;;;6255792;22;20023;-86
2022/12/27 17:38:11;;;;;;;29.23;16.50;;;1.10;99.90;;;;;;6247285;23;20059;-87
2022/12/27 17:44:36;;;;;;;19.38;10.95;;;0.90;99.90;;;;;;6248702;23;20041;-86
2022/12/27 17:44:42;;;;;;;23.52;12.38;;;0.80;99.90;;;;;;6261720;22;20079;-87
2022/12/27 17:47:47;;;;;;;20.15;11.00;;;0.70;99.90;;;;;;6258885;23;20024;-87
2022/12/27 17:50:36;;;;;;;19.38;10.65;;;0.60;1.00;;;;;;6264159;22;20023;-86
2022/12/27 17:59:51;;;;;;;30.52;16.88;;;0.70;95.30;;;;;;6271690;22;20042;-87
2022/12/27 18:02:39;;;;;;;31.85;15.68;;;0.60;99.90;;;;;;6273077;22;20318;-83
2022/12/27 18:06:13;;;;;;;38.78;19.55;;;0.60;99.90;;;;;;6270421;22;20395;-86
2022/12/27 18:09:06;;;;;;;41.65;18.00;;;0.70;99.90;;;;;;6253291;23;20024;-86
2022/12/27 18:11:54;;;;;;;38.42;20.58;;;0.60;99.90;;;;;;6253713;23;20035;-86
2022/12/27 18:14:42;;;;;;;38.88;21.25;;;0.40;99.90;;;;;;6262803;22;20031;-86
2022/12/27 18:17:43;;;;;;;40.10;20.00;;;0.30;99.90;;;;;;6256796;23;20035;-85
2022/12/27 18:20:36;;;;;;;33.28;17.30;;;0.30;99.90;;;;;;6250592;23;20101;-84
2022/12/27 18:23:24;;;;;;;33.00;18.13;;;0.40;99.90;;;;;;6246558;23;20353;-85
2022/12/27 18:26:14;;;;;;;36.53;20.73;;;0.50;99.90;;;;;;6248520;23;20423;-85
2022/12/27 18:29:02;;;;;;;34.60;20.55;;;0.50;99.90;;;;;;6246144;23;20024;-84
2022/12/27 18:31:54;;;;;;;41.38;21.90;;;0.50;99.90;;;;;;6249443;23;20288;-87
2022/12/27 18:34:47;;;;;;;;;;;0.40;99.90;;;;;;6248230;23;20028;-87
2022/12/27 18:37:39;;;;;;;43.97;20.63;;;0.40;99.90;;;;;;6246734;23;20380;-86
2022/12/27 18:40:27;;;;;;;42.53;20.33;;;0.40;99.90;;;;;;6245481;23;20024;-85
2022/12/27 18:43:14;;;;;;;100.53;31.50;;;0.30;99.90;;;;;;6247148;23;20246;-86
2022/12/27 18:46:05;;;;;;;55.35;21.00;;;0.30;99.90;;;;;;6248272;22;20031;-86
2022/12/27 18:48:53;;;;;;;39.75;16.25;;;0.30;99.90;;;;;;6247010;23;20419;-85
2022/12/27 18:51:44;;;;;;;45.25;17.60;;;0.30;99.90;;;;;;6246101;23;20028;-85
2022/12/27 18:54:34;;;;;;;62.95;23.23;;;0.60;99.90;;;;;;6248252;22;20039;-85
2022/12/27 18:57:34;;;;;;;43.72;18.67;;;0.80;99.90;;;;;;6248036;23;20024;-86
2022/12/27 19:00:25;;;;;;;52.70;19.92;;;0.70;99.90;;;;;;6249842;22;20096;-84
2022/12/27 19:03:21;;;;;;;65.72;22.85;;;0.50;99.90;;;;;;6249908;23;20035;-85
2022/12/27 19:06:11;;;;;;;53.25;20.95;;;0.50;99.90;;;;;;6247172;23;20035;-85
2022/12/27 19:08:59;;;;;;;45.70;20.05;;;0.30;99.90;;;;;;6249393;23;20028;-85
2022/12/27 19:11:54;;;;;;;37.80;15.55;;;0.20;99.90;;;;;;6251134;23;20039;-85
2022/12/27 19:14:45;;;;;;;32.75;16.40;;;0.10;99.90;;;;;;6250614;22;20024;-85
2022/12/27 19:17:37;;;;;;;32.67;15.73;;;0.10;99.90;;;;;;6249962;22;20431;-88
2022/12/27 19:20:28;;;;;;;37.03;15.13;;;0.10;99.90;;;;;;6232271;23;20024;-87
2022/12/27 19:23:26;;;;;;;29.33;15.13;;;0.00;99.90;;;;;;6251559;22;20089;-87
2022/12/27 19:26:22;;;;;;;29.52;15.02;;;-0.20;99.90;;;;;;6247710;23;20102;-86
2022/12/27 19:29:15;;;;;;;49.28;21.23;;;-0.10;99.90;;;;;;6248022;22;20024;-85
2022/12/27 19:32:08;;;;;;;44.10;21.58;;;-0.10;99.90;;;;;;6245845;23;20048;-85
2022/12/27 19:35:03;;;;;;;50.10;21.75;;;-0.10;99.90;;;;;;6248634;23;20020;-86
2022/12/27 19:37:51;;;;;;;34.25;14.45;;;0.00;99.90;;;;;;6247955;23;20024;-87
2022/12/27 19:41:01;;;;;;;34.60;15.27;;;0.10;99.90;;;;;;6246595;23;20149;-87
2022/12/27 19:43:50;;;;;;;21.55;10.70;;;0.10;99.90;;;;;;6253873;22;20075;-86
2022/12/27 19:46:40;;;;;;;33.15;14.95;;;0.10;99.90;;;;;;6250542;23;20020;-85
2022/12/27 19:49:49;;;;;;;32.58;16.45;;;0.10;99.90;;;;;;6250880;22;20048;-86
2022/12/27 19:52:38;;;;;;;34.85;16.83;;;0.00;99.90;;;;;;6254080;22;20183;-84
2022/12/27 19:55:29;;;;;;;35.75;17.10;;;0.00;99.90;;;;;;6254374;23;20027;-85
2022/12/27 19:58:25;;;;;;;42.67;16.85;;;-0.10;99.90;;;;;;6252964;22;20043;-86
2022/12/27 20:01:13;;;;;;;33.97;19.75;;;-0.20;99.90;;;;;;6252186;22;20024;-86
2022/12/27 20:04:03;;;;;;;38.72;18.17;;;-0.20;99.90;;;;;;6248476;23;20438;-85
2022/12/27 20:07:04;;;;;;;40.05;21.15;;;-0.20;99.90;;;;;;6251691;23;20024;-86
2022/12/27 20:09:52;;;;;;;33.05;18.55;;;-0.10;99.90;;;;;;6231557;23;20024;-88
2022/12/27 20:12:46;;;;;;;24.05;13.45;;;-0.10;99.90;;;;;;6234113;23;20020;-86
2022/12/27 20:15:38;;;;;;;32.08;15.18;;;0.20;99.90;;;;;;6250799;23;20028;-88
2022/12/27 20:18:28;;;;;;;30.77;15.48;;;0.20;99.90;;;;;;6249185;23;20105;-86
2022/12/27 20:21:22;;;;;;;30.35;16.02;;;0.30;99.90;;;;;;6253761;22;20028;-86
2022/12/27 20:24:11;;;;;;;27.15;13.00;;;0.40;99.90;;;;;;6251089;23;20035;-86
2022/12/27 20:26:58;;;;;;;22.40;11.68;;;0.50;99.90;;;;;;6251660;22;20353;-87
2022/12/27 20:29:47;;;;;;;18.27;11.18;;;0.70;99.90;;;;;;6251488;23;20034;-85
2022/12/27 20:32:34;;;;;;;19.60;10.07;;;0.90;99.90;;;;;;6252056;23;20052;-86
2022/12/27 20:35:32;;;;;;;17.92;9.25;;;1.00;99.90;;;;;;6256039;23;20028;-85
2022/12/27 20:38:25;;;;;;;17.33;9.73;;;1.20;99.90;;;;;;6254880;23;20027;-87
2022/12/27 20:41:30;;;;;;;15.38;9.48;;;1.20;99.90;;;;;;6255508;22;20025;-87
2022/12/27 20:44:17;;;;;;;16.17;9.38;;;1.30;99.90;;;;;;6248071;22;20024;-85
2022/12/27 20:47:06;;;;;;;16.77;9.65;;;1.30;99.90;;;;;;6248059;23;20051;-87
2022/12/27 20:49:55;;;;;;;19.63;10.40;;;1.30;99.90;;;;;;6246374;23;20035;-88
2022/12/27 20:52:46;;;;;;;27.58;13.63;;;1.30;99.90;;;;;;6256140;22;20109;-87
2022/12/27 20:55:38;;;;;;;22.73;12.05;;;1.10;99.90;;;;;;6255666;23;20024;-86
2022/12/27 20:58:31;;;;;;;24.38;12.32;;;0.90;99.90;;;;;;6257412;22;20035;-85
2022/12/27 21:01:27;;;;;;;20.63;11.90;;;0.80;99.90;;;;;;6256386;22;20027;-85
2022/12/27 21:04:17;;;;;;;20.35;11.35;;;0.80;99.90;;;;;;6251670;23;20028;-86
2022/12/27 21:07:05;;;;;;;21.58;12.13;;;0.80;99.90;;;;;;6251525;23;20020;-86
2022/12/27 21:09:55;;;;;;;23.63;12.63;;;0.80;99.90;;;;;;6251432;23;20024;-85
2022/12/27 21:12:47;;;;;;;23.15;12.90;;;0.80;99.90;;;;;;6258600;23;20111;-85
2022/12/27 21:15:35;;;;;;;25.75;12.75;;;0.80;99.90;;;;;;6259086;23;20068;-86
2022/12/27 21:18:32;;;;;;;22.10;11.40;;;0.70;99.90;;;;;;6258499;23;20315;-85
2022/12/27 21:21:23;;;;;;;19.73;11.38;;;0.70;99.90;;;;;;6252871;22;20020;-87
2022/12/27 21:24:14;;;;;;;20.10;12.30;;;0.80;99.90;;;;;;6247744;23;20024;-86
2022/12/27 21:27:01;;;;;;;23.00;13.95;;;1.00;99.90;;;;;;6251349;22;20020;-88
2022/12/27 21:29:54;;;;;;;22.88;13.70;;;1.00;99.90;;;;;;6252936;23;20024;-87
2022/12/27 21:32:41;;;;;;;23.23;13.25;;;1.10;99.90;;;;;;6250899;22;20020;-86
2022/12/27 21:35:29;;;;;;;22.42;13.68;;;1.10;99.90;;;;;;6249696;23;20123;-86
2022/12/27 21:38:16;;;;;;;21.08;12.50;;;1.00;99.90;;;;;;6249469;22;20208;-87
2022/12/27 21:41:10;;;;;;;22.95;13.43;;;1.00;99.90;;;;;;6249077;23;20028;-85
2022/12/27 21:43:58;;;;;;;19.33;13.98;;;1.00;99.90;;;;;;6251607;23;20024;-86
2022/12/27 21:46:46;;;;;;;24.73;13.35;;;0.90;99.90;;;;;;6255744;23;20019;-85
2022/12/27 21:49:40;;;;;;;25.05;14.27;;;0.90;99.90;;;;;;6260002;23;20024;-86
2022/12/27 21:52:27;;;;;;;28.42;14.77;;;0.90;99.90;;;;;;6253499;23;20083;-87
2022/12/27 21:55:18;;;;;;;28.25;14.88;;;0.90;99.90;;;;;;6250927;23;20020;-85
2022/12/27 21:58:05;;;;;;;25.27;13.95;;;0.80;99.90;;;;;;6250242;23;20024;-87
2022/12/27 22:00:59;;;;;;;20.63;12.88;;;0.80;99.90;;;;;;6252371;23;20082;-85
2022/12/27 22:03:57;;;;;;;20.63;12.60;;;0.90;99.90;;;;;;6248825;23;20340;-84
2022/12/27 22:06:45;;;;;;;20.15;13.75;;;0.90;99.90;;;;;;6250798;23;20024;-86
2022/12/27 22:09:33;;;;;;;23.35;13.48;;;0.90;99.90;;;;;;6249875;23;20380;-85
2022/12/27 22:12:23;;;;;;;24.38;13.65;;;0.80;99.90;;;;;;6248280;23;20051;-85
2022/12/27 22:15:10;;;;;;;27.25;14.23;;;0.80;99.90;;;;;;6245344;23;20040;-86
2022/12/27 22:17:57;;;;;;;26.40;16.08;;;0.80;99.90;;;;;;6246238;23;20043;-85
2022/12/27 22:20:45;;;;;;;28.80;17.85;;;0.70;99.90;;;;;;6250770;22;20032;-87
2022/12/27 22:23:35;;;;;;;24.90;15.70;;;0.70;99.90;;;;;;6247640;23;20095;-86
2022/12/27 22:26:28;;;;;;;27.00;15.65;;;0.70;99.90;;;;;;6247726;23;20030;-86
2022/12/27 22:29:17;;;;;;;;;;;0.80;99.90;;;;;;6247492;23;20024;-86
2022/12/27 22:32:04;;;;;;;21.92;12.32;;;0.90;99.90;;;;;;6245564;23;19916;-85
2022/12/27 22:34:53;;;;;;;17.35;12.23;;;0.90;99.90;;;;;;6245318;23;20639;-85
2022/12/27 22:37:40;;;;;;;22.55;12.45;;;0.90;99.90;;;;;;6250795;22;20028;-87
2022/12/27 22:40:27;;;;;;;17.92;12.45;;;0.80;99.90;;;;;;6246488;23;20032;-87
2022/12/27 22:43:35;;;;;;;16.52;11.70;;;0.80;99.90;;;;;;6248447;22;20039;-86
2022/12/27 22:46:22;;;;;;;19.00;12.27;;;0.80;99.90;;;;;;6246605;23;20116;-86
2022/12/27 22:49:10;;;;;;;19.35;11.75;;;0.80;99.90;;;;;;6248035;23;20027;-86
2022/12/27 22:51:57;;;;;;;16.58;11.65;;;0.80;99.90;;;;;;6246833;23;20102;-86
2022/12/27 22:54:46;;;;;;;16.45;11.43;;;0.80;99.90;;;;;;6243314;22;20027;-85
2022/12/27 22:57:54;;;;;;;17.95;11.50;;;0.80;99.90;;;;;;6248706;22;20046;-85
2022/12/27 23:00:43;;;;;;;15.75;10.18;;;0.80;99.90;;;;;;6246004;23;20028;-86
2022/12/27 23:03:33;;;;;;;21.85;11.40;;;0.70;99.90;;;;;;6247297;23;20028;-86
2022/12/27 23:06:21;;;;;;;20.02;11.48;;;0.70;99.90;;;;;;6249548;22;20020;-86
2022/12/27 23:09:08;;;;;;;17.50;11.18;;;0.60;99.90;;;;;;6247462;22;20296;-85
2022/12/27 23:11:56;;;;;;;18.20;11.07;;;0.60;99.90;;;;;;6248157;23;20027;-86
2022/12/27 23:14:43;;;;;;;18.83;10.90;;;0.50;99.90;;;;;;6245960;23;20024;-84
2022/12/27 23:17:51;;;;;;;19.02;10.13;;;0.40;99.90;;;;;;6252843;22;20166;-86
2022/12/27 23:20:41;;;;;;;15.75;10.05;;;0.30;99.90;;;;;;6251710;22;20283;-85
2022/12/27 23:23:50;;;;;;;18.75;9.93;;;0.10;99.90;;;;;;6248696;23;20060;-85
2022/12/27 23:26:40;;;;;;;16.73;10.23;;;0.10;99.90;;;;;;6251700;23;20020;-86
2022/12/27 23:29:28;;;;;;;19.05;10.45;;;0.10;99.90;;;;;;6254088;22;20079;-88
2022/12/27 23:32:16;;;;;;;16.20;10.07;;;0.10;99.90;;;;;;6260257;23;20047;-86
2022/12/27 23:35:06;;;;;;;17.25;11.25;;;0.20;99.90;;;;;;6262812;23;20307;-87
2022/12/27 23:37:59;;;;;;;19.15;10.90;;;0.30;99.90;;;;;;6262916;23;20054;-84
2022/12/27 23:40:58;;;;;;;21.13;9.43;;;0.40;99.90;;;;;;6238652;23;20020;-85
2022/12/27 23:43:46;;;;;;;13.95;9.57;;;0.50;99.90;;;;;;6239494;23;20040;-85
2022/12/27 23:46:40;;;;;;;19.10;9.00;;;0.70;99.90;;;;;;6232967;22;20096;-85
2022/12/27 23:49:30;;;;;;;14.98;8.77;;;0.80;99.90;;;;;;6230660;23;20046;-85
2022/12/27 23:52:19;;;;;;;12.30;8.48;;;0.80;99.90;;;;;;6230246;23;20052;-85
2022/12/27 23:55:11;;;;;;;11.52;7.40;;;1.00;99.90;;;;;;6221373;23;20399;-86
2022/12/27 23:57:59;;;;;;;13.75;8.20;;;1.10;99.90;;;;;;6222146;23;20055;-86
